sensor_id;sensor_type;location;lat;lon;timestamp;pressure;altitude;pressure_sealevel;temperature;humidity
51031;BME280;37058;41.442;23.240;2022-10-22T00:00:00;101515.31;;;7.68;80.89
51031;BME280;37058;41.442;23.240;2022-10-22T00:02:26;101523.03;;;7.64;80.86
51031;BME280;37058;41.442;23.240;2022-10-22T00:04:52;101521.38;;;7.63;81.49
51031;BME280;37058;41.442;23.240;2022-10-22T00:07:19;101529.72;;;7.62;82.64
51031;BME280;37058;41.442;23.240;2022-10-22T00:09:46;101529.72;;;7.62;83.00
51031;BME280;37058;41.442;23.240;2022-10-22T00:12:14;101534.31;;;7.61;82.30
51031;BME280;37058;41.442;23.240;2022-10-22T00:14:41;101534.50;;;7.59;82.38
51031;BME280;37058;41.442;23.240;2022-10-22T00:17:07;101534.78;;;7.65;81.20
51031;BME280;37058;41.442;23.240;2022-10-22T00:19:33;101538.31;;;7.72;80.78
51031;BME280;37058;41.442;23.240;2022-10-22T00:21:59;101533.50;;;7.74;80.73
51031;BME280;37058;41.442;23.240;2022-10-22T00:24:25;101535.41;;;7.80;79.57
51031;BME280;37058;41.442;23.240;2022-10-22T00:26:51;101526.41;;;7.79;77.56
51031;BME280;37058;41.442;23.240;2022-10-22T00:29:17;101529.75;;;7.75;76.58
51031;BME280;37058;41.442;23.240;2022-10-22T00:31:45;101529.53;;;7.76;76.56
51031;BME280;37058;41.442;23.240;2022-10-22T00:34:19;101532.06;;;7.78;77.34
51031;BME280;37058;41.442;23.240;2022-10-22T00:36:47;101531.66;;;7.81;78.23
51031;BME280;37058;41.442;23.240;2022-10-22T00:39:19;101529.97;;;7.80;79.52
51031;BME280;37058;41.442;23.240;2022-10-22T00:41:48;101532.47;;;7.81;80.39
51031;BME280;37058;41.442;23.240;2022-10-22T00:45:13;101520.75;;;7.81;81.88
51031;BME280;37058;41.442;23.240;2022-10-22T00:47:45;101520.75;;;7.81;83.39
51031;BME280;37058;41.442;23.240;2022-10-22T00:50:35;101524.72;;;7.72;82.90
51031;BME280;37058;41.442;23.240;2022-10-22T00:53:05;101528.88;;;7.61;80.29
51031;BME280;37058;41.442;23.240;2022-10-22T00:55:32;101511.72;;;7.47;79.78
51031;BME280;37058;41.442;23.240;2022-10-22T00:57:59;101518.81;;;7.48;80.50
51031;BME280;37058;41.442;23.240;2022-10-22T01:00:26;101522.81;;;7.52;81.03
51031;BME280;37058;41.442;23.240;2022-10-22T01:02:53;101526.38;;;7.53;80.52
51031;BME280;37058;41.442;23.240;2022-10-22T01:05:20;101513.59;;;7.53;78.75
51031;BME280;37058;41.442;23.240;2022-10-22T01:07:51;101523.00;;;7.51;79.59
51031;BME280;37058;41.442;23.240;2022-10-22T01:13:43;101516.28;;;7.40;80.50
51031;BME280;37058;41.442;23.240;2022-10-22T01:22:29;101515.50;;;6.91;80.66
51031;BME280;37058;41.442;23.240;2022-10-22T01:30:56;101503.97;;;6.89;83.16
51031;BME280;37058;41.442;23.240;2022-10-22T01:33:24;101500.81;;;6.86;83.65
51031;BME280;37058;41.442;23.240;2022-10-22T01:35:51;101497.06;;;6.87;83.47
51031;BME280;37058;41.442;23.240;2022-10-22T01:38:20;101498.97;;;6.93;83.40
51031;BME280;37058;41.442;23.240;2022-10-22T01:40:49;101498.97;;;6.86;82.98
51031;BME280;37058;41.442;23.240;2022-10-22T01:43:15;101490.81;;;6.93;83.08
51031;BME280;37058;41.442;23.240;2022-10-22T01:45:49;101489.41;;;6.97;82.59
51031;BME280;37058;41.442;23.240;2022-10-22T01:48:44;101488.97;;;7.00;81.68
51031;BME280;37058;41.442;23.240;2022-10-22T01:57:27;101478.41;;;6.70;82.30
51031;BME280;37058;41.442;23.240;2022-10-22T02:00:07;101471.72;;;6.66;83.60
51031;BME280;37058;41.442;23.240;2022-10-22T02:03:05;101476.28;;;6.66;84.06
51031;BME280;37058;41.442;23.240;2022-10-22T02:05:48;101475.44;;;6.59;85.28
51031;BME280;37058;41.442;23.240;2022-10-22T02:08:27;101481.22;;;6.56;85.93
51031;BME280;37058;41.442;23.240;2022-10-22T02:10:54;101478.75;;;6.54;85.29
51031;BME280;37058;41.442;23.240;2022-10-22T02:13:26;101482.88;;;6.50;83.11
51031;BME280;37058;41.442;23.240;2022-10-22T02:15:55;101486.56;;;6.36;80.23
51031;BME280;37058;41.442;23.240;2022-10-22T02:18:28;101492.13;;;6.27;79.74
51031;BME280;37058;41.442;23.240;2022-10-22T02:20:56;101501.84;;;6.15;78.88
51031;BME280;37058;41.442;23.240;2022-10-22T02:23:23;101495.91;;;6.05;78.47
51031;BME280;37058;41.442;23.240;2022-10-22T02:25:59;101498.72;;;5.90;79.41
51031;BME280;37058;41.442;23.240;2022-10-22T02:28:38;101492.63;;;5.88;79.53
51031;BME280;37058;41.442;23.240;2022-10-22T02:31:20;101502.41;;;5.82;79.66
51031;BME280;37058;41.442;23.240;2022-10-22T02:33:51;101507.94;;;5.74;79.86
51031;BME280;37058;41.442;23.240;2022-10-22T02:36:19;101503.56;;;5.73;80.57
51031;BME280;37058;41.442;23.240;2022-10-22T02:38:48;101510.28;;;5.77;80.99
51031;BME280;37058;41.442;23.240;2022-10-22T02:41:17;101501.53;;;5.82;81.42
51031;BME280;37058;41.442;23.240;2022-10-22T02:43:50;101502.00;;;5.85;81.52
51031;BME280;37058;41.442;23.240;2022-10-22T02:46:17;101498.25;;;5.86;81.28
51031;BME280;37058;41.442;23.240;2022-10-22T02:48:43;101497.22;;;5.88;81.40
51031;BME280;37058;41.442;23.240;2022-10-22T02:51:09;101498.25;;;5.86;82.45
51031;BME280;37058;41.442;23.240;2022-10-22T02:53:35;101494.28;;;5.89;82.57
51031;BME280;37058;41.442;23.240;2022-10-22T02:56:01;101491.59;;;5.89;83.28
51031;BME280;37058;41.442;23.240;2022-10-22T02:58:27;101489.91;;;5.88;84.21
51031;BME280;37058;41.442;23.240;2022-10-22T03:00:53;101481.13;;;5.86;84.44
51031;BME280;37058;41.442;23.240;2022-10-22T03:03:19;101486.38;;;5.88;84.93
51031;BME280;37058;41.442;23.240;2022-10-22T03:05:44;101494.44;;;5.81;85.96
51031;BME280;37058;41.442;23.240;2022-10-22T03:08:10;101486.25;;;5.74;86.65
51031;BME280;37058;41.442;23.240;2022-10-22T03:10:36;101501.34;;;5.62;85.92
51031;BME280;37058;41.442;23.240;2022-10-22T03:13:02;101496.88;;;5.54;84.89
51031;BME280;37058;41.442;23.240;2022-10-22T03:15:28;101486.75;;;5.20;84.80
51031;BME280;37058;41.442;23.240;2022-10-22T03:17:54;101496.66;;;5.13;85.36
51031;BME280;37058;41.442;23.240;2022-10-22T03:20:20;101505.81;;;5.12;85.77
51031;BME280;37058;41.442;23.240;2022-10-22T03:22:45;101506.56;;;5.06;85.95
51031;BME280;37058;41.442;23.240;2022-10-22T03:25:17;101507.47;;;5.13;86.47
51031;BME280;37058;41.442;23.240;2022-10-22T03:27:45;101512.13;;;5.19;86.85
51031;BME280;37058;41.442;23.240;2022-10-22T03:30:11;101506.16;;;5.24;86.59
51031;BME280;37058;41.442;23.240;2022-10-22T03:32:37;101510.34;;;5.26;87.23
51031;BME280;37058;41.442;23.240;2022-10-22T03:35:04;101516.22;;;5.30;87.28
51031;BME280;37058;41.442;23.240;2022-10-22T03:37:31;101510.59;;;5.31;86.26
51031;BME280;37058;41.442;23.240;2022-10-22T03:39:58;101511.47;;;5.32;86.16
51031;BME280;37058;41.442;23.240;2022-10-22T03:42:24;101505.84;;;5.33;86.28
51031;BME280;37058;41.442;23.240;2022-10-22T03:44:50;101506.69;;;5.34;85.71
51031;BME280;37058;41.442;23.240;2022-10-22T03:47:16;101505.72;;;5.41;85.24
51031;BME280;37058;41.442;23.240;2022-10-22T03:49:42;101503.09;;;5.48;84.52
51031;BME280;37058;41.442;23.240;2022-10-22T03:52:12;101503.09;;;5.48;83.25
51031;BME280;37058;41.442;23.240;2022-10-22T03:54:39;101501.03;;;5.50;83.75
51031;BME280;37058;41.442;23.240;2022-10-22T03:57:05;101511.28;;;5.55;84.11
51031;BME280;37058;41.442;23.240;2022-10-22T03:59:42;101514.63;;;5.57;83.61
51031;BME280;37058;41.442;23.240;2022-10-22T04:02:10;101520.97;;;5.64;83.78
51031;BME280;37058;41.442;23.240;2022-10-22T04:04:37;101525.72;;;5.62;84.28
51031;BME280;37058;41.442;23.240;2022-10-22T04:07:05;101521.53;;;5.59;85.30
51031;BME280;37058;41.442;23.240;2022-10-22T04:09:32;101526.78;;;5.61;86.02
51031;BME280;37058;41.442;23.240;2022-10-22T04:11:58;101528.00;;;5.58;86.73
51031;BME280;37058;41.442;23.240;2022-10-22T04:14:24;101528.84;;;5.59;88.31
51031;BME280;37058;41.442;23.240;2022-10-22T04:16:50;101525.16;;;5.45;87.53
51031;BME280;37058;41.442;23.240;2022-10-22T04:19:16;101523.97;;;5.33;85.00
51031;BME280;37058;41.442;23.240;2022-10-22T04:21:43;101526.31;;;5.21;83.64
51031;BME280;37058;41.442;23.240;2022-10-22T04:24:09;101534.56;;;5.13;83.54
51031;BME280;37058;41.442;23.240;2022-10-22T04:26:35;101531.19;;;5.11;83.15
51031;BME280;37058;41.442;23.240;2022-10-22T04:29:01;101522.63;;;5.07;83.52
51031;BME280;37058;41.442;23.240;2022-10-22T04:31:29;101537.00;;;5.08;83.67
51031;BME280;37058;41.442;23.240;2022-10-22T04:33:58;101521.97;;;5.05;83.88
51031;BME280;37058;41.442;23.240;2022-10-22T04:36:25;101524.22;;;5.02;83.75
51031;BME280;37058;41.442;23.240;2022-10-22T04:38:58;101520.66;;;5.01;83.24
51031;BME280;37058;41.442;23.240;2022-10-22T04:41:28;101521.78;;;5.07;83.71
51031;BME280;37058;41.442;23.240;2022-10-22T04:43:55;101533.72;;;5.12;83.50
51031;BME280;37058;41.442;23.240;2022-10-22T04:46:22;101526.25;;;5.14;83.93
51031;BME280;37058;41.442;23.240;2022-10-22T04:48:50;101527.47;;;5.12;84.30
51031;BME280;37058;41.442;23.240;2022-10-22T04:51:20;101531.84;;;5.13;84.38
51031;BME280;37058;41.442;23.240;2022-10-22T04:53:47;101532.69;;;5.13;84.32
51031;BME280;37058;41.442;23.240;2022-10-22T04:56:25;101529.16;;;5.13;84.75
51031;BME280;37058;41.442;23.240;2022-10-22T04:58:57;101530.81;;;5.14;85.09
51031;BME280;37058;41.442;23.240;2022-10-22T05:01:30;101522.34;;;5.17;85.76
51031;BME280;37058;41.442;23.240;2022-10-22T05:04:01;101518.41;;;5.19;85.84
51031;BME280;37058;41.442;23.240;2022-10-22T05:06:29;101517.50;;;5.12;84.30
51031;BME280;37058;41.442;23.240;2022-10-22T05:09:00;101533.25;;;5.09;83.21
51031;BME280;37058;41.442;23.240;2022-10-22T05:11:34;101536.72;;;5.03;82.11
51031;BME280;37058;41.442;23.240;2022-10-22T05:14:03;101536.47;;;4.97;81.50
51031;BME280;37058;41.442;23.240;2022-10-22T05:16:30;101538.13;;;4.98;81.53
51031;BME280;37058;41.442;23.240;2022-10-22T05:18:58;101527.56;;;5.04;81.43
51031;BME280;37058;41.442;23.240;2022-10-22T05:21:25;101524.13;;;5.10;81.12
51031;BME280;37058;41.442;23.240;2022-10-22T05:23:53;101527.47;;;5.12;81.37
51031;BME280;37058;41.442;23.240;2022-10-22T05:26:21;101526.94;;;5.02;81.74
51031;BME280;37058;41.442;23.240;2022-10-22T05:28:48;101528.88;;;5.08;81.26
51031;BME280;37058;41.442;23.240;2022-10-22T05:31:16;101526.81;;;5.10;81.48
51031;BME280;37058;41.442;23.240;2022-10-22T05:33:43;101525.31;;;5.22;81.79
51031;BME280;37058;41.442;23.240;2022-10-22T05:36:18;101525.72;;;5.40;81.44
51031;BME280;37058;41.442;23.240;2022-10-22T05:38:45;101525.09;;;5.60;81.71
51031;BME280;37058;41.442;23.240;2022-10-22T05:41:20;101527.81;;;5.81;81.58
51031;BME280;37058;41.442;23.240;2022-10-22T05:43:47;101524.53;;;6.07;80.98
51031;BME280;37058;41.442;23.240;2022-10-22T05:46:19;101531.25;;;6.40;80.10
51031;BME280;37058;41.442;23.240;2022-10-22T05:48:58;101526.72;;;7.30;77.00
51031;BME280;37058;41.442;23.240;2022-10-22T05:51:28;101523.06;;;7.84;74.32
51031;BME280;37058;41.442;23.240;2022-10-22T05:53:57;101515.78;;;8.18;72.65
51031;BME280;37058;41.442;23.240;2022-10-22T05:56:25;101514.69;;;8.45;71.83
51031;BME280;37058;41.442;23.240;2022-10-22T05:58:52;101520.56;;;8.56;71.16
51031;BME280;37058;41.442;23.240;2022-10-22T06:01:22;101518.06;;;8.48;72.21
51031;BME280;37058;41.442;23.240;2022-10-22T06:03:48;101524.75;;;8.52;72.24
51031;BME280;37058;41.442;23.240;2022-10-22T06:06:31;101533.09;;;8.77;71.99
51031;BME280;37058;41.442;23.240;2022-10-22T06:09:23;101531.84;;;8.79;71.82
51031;BME280;37058;41.442;23.240;2022-10-22T06:11:50;101534.75;;;8.84;71.82
51031;BME280;37058;41.442;23.240;2022-10-22T06:14:17;101536.16;;;8.94;71.80
51031;BME280;37058;41.442;23.240;2022-10-22T06:16:43;101535.53;;;9.05;72.28
51031;BME280;37058;41.442;23.240;2022-10-22T06:19:12;101537.09;;;9.32;71.61
51031;BME280;37058;41.442;23.240;2022-10-22T06:21:39;101542.03;;;9.49;71.07
51031;BME280;37058;41.442;23.240;2022-10-22T06:24:05;101531.88;;;9.63;70.73
51031;BME280;37058;41.442;23.240;2022-10-22T06:26:31;101537.22;;;9.83;70.70
51031;BME280;37058;41.442;23.240;2022-10-22T06:28:58;101529.13;;;9.94;70.57
51031;BME280;37058;41.442;23.240;2022-10-22T06:31:25;101531.69;;;10.21;69.56
51031;BME280;37058;41.442;23.240;2022-10-22T06:33:51;101525.03;;;10.60;68.95
51031;BME280;37058;41.442;23.240;2022-10-22T06:36:20;101523.53;;;11.01;67.68
51031;BME280;37058;41.442;23.240;2022-10-22T06:38:50;101522.56;;;11.44;66.21
51031;BME280;37058;41.442;23.240;2022-10-22T06:41:16;101524.09;;;11.82;65.18
51031;BME280;37058;41.442;23.240;2022-10-22T06:43:44;101529.19;;;11.97;64.95
51031;BME280;37058;41.442;23.240;2022-10-22T06:46:17;101522.94;;;12.44;64.21
51031;BME280;37058;41.442;23.240;2022-10-22T06:48:49;101531.09;;;12.91;62.57
51031;BME280;37058;41.442;23.240;2022-10-22T06:51:15;101529.19;;;13.03;62.38
51031;BME280;37058;41.442;23.240;2022-10-22T06:53:41;101525.09;;;13.17;62.35
51031;BME280;37058;41.442;23.240;2022-10-22T06:56:10;101531.25;;;13.36;62.09
51031;BME280;37058;41.442;23.240;2022-10-22T06:58:37;101528.63;;;13.87;61.35
51031;BME280;37058;41.442;23.240;2022-10-22T07:01:12;101530.50;;;14.32;60.18
51031;BME280;37058;41.442;23.240;2022-10-22T07:03:40;101532.34;;;14.43;59.64
51031;BME280;37058;41.442;23.240;2022-10-22T07:06:12;101530.63;;;14.76;58.48
51031;BME280;37058;41.442;23.240;2022-10-22T07:08:40;101521.69;;;15.57;56.68
51031;BME280;37058;41.442;23.240;2022-10-22T07:13:36;101526.22;;;19.33;46.78
51031;BME280;37058;41.442;23.240;2022-10-22T07:16:04;101526.03;;;21.19;41.92
51031;BME280;37058;41.442;23.240;2022-10-22T07:18:32;101529.88;;;22.18;39.57
51031;BME280;37058;41.442;23.240;2022-10-22T07:20:59;101535.09;;;23.13;37.51
51031;BME280;37058;41.442;23.240;2022-10-22T07:23:26;101524.28;;;23.62;36.48
51031;BME280;37058;41.442;23.240;2022-10-22T07:25:52;101525.09;;;21.24;40.58
51031;BME280;37058;41.442;23.240;2022-10-22T07:28:18;101529.81;;;19.33;44.98
51031;BME280;37058;41.442;23.240;2022-10-22T07:30:44;101524.78;;;18.55;47.43
51031;BME280;37058;41.442;23.240;2022-10-22T07:33:11;101532.75;;;17.64;50.03
51031;BME280;37058;41.442;23.240;2022-10-22T07:35:38;101533.09;;;17.05;52.13
51031;BME280;37058;41.442;23.240;2022-10-22T07:38:06;101530.84;;;16.54;53.39
51031;BME280;37058;41.442;23.240;2022-10-22T07:40:33;101524.97;;;16.03;55.21
51031;BME280;37058;41.442;23.240;2022-10-22T07:43:00;101516.91;;;15.69;56.74
51031;BME280;37058;41.442;23.240;2022-10-22T07:45:26;101517.44;;;15.44;57.91
51031;BME280;37058;41.442;23.240;2022-10-22T07:47:52;101516.44;;;15.28;58.36
51031;BME280;37058;41.442;23.240;2022-10-22T07:50:18;101517.53;;;15.27;59.12
51031;BME280;37058;41.442;23.240;2022-10-22T07:52:44;101521.53;;;15.14;59.67
51031;BME280;37058;41.442;23.240;2022-10-22T07:55:10;101521.19;;;15.11;60.13
51031;BME280;37058;41.442;23.240;2022-10-22T07:57:37;101519.72;;;15.03;60.43
51031;BME280;37058;41.442;23.240;2022-10-22T08:00:06;101506.78;;;15.04;61.09
51031;BME280;37058;41.442;23.240;2022-10-22T08:02:32;101488.88;;;14.79;61.74
51031;BME280;37058;41.442;23.240;2022-10-22T08:04:58;101493.06;;;14.65;62.58
51031;BME280;37058;41.442;23.240;2022-10-22T08:07:24;101497.63;;;14.76;62.15
51031;BME280;37058;41.442;23.240;2022-10-22T08:09:50;101495.44;;;14.78;62.14
51031;BME280;37058;41.442;23.240;2022-10-22T08:12:16;101499.44;;;14.87;62.00
51031;BME280;37058;41.442;23.240;2022-10-22T08:14:42;101480.88;;;15.00;61.15
51031;BME280;37058;41.442;23.240;2022-10-22T08:17:08;101498.03;;;15.07;60.91
51031;BME280;37058;41.442;23.240;2022-10-22T08:19:34;101492.84;;;15.10;60.99
51031;BME280;37058;41.442;23.240;2022-10-22T08:22:01;101489.06;;;15.16;60.68
51031;BME280;37058;41.442;23.240;2022-10-22T08:24:27;101487.75;;;15.24;60.32
51031;BME280;37058;41.442;23.240;2022-10-22T08:26:53;101498.56;;;15.31;59.79
51031;BME280;37058;41.442;23.240;2022-10-22T08:29:24;101489.56;;;15.35;60.04
51031;BME280;37058;41.442;23.240;2022-10-22T08:31:52;101481.34;;;15.41;59.94
51031;BME280;37058;41.442;23.240;2022-10-22T08:34:19;101489.91;;;15.44;59.46
51031;BME280;37058;41.442;23.240;2022-10-22T08:36:45;101490.72;;;15.39;59.61
51031;BME280;37058;41.442;23.240;2022-10-22T08:39:12;101494.00;;;15.42;59.60
51031;BME280;37058;41.442;23.240;2022-10-22T08:50:53;101483.06;;;16.01;57.81
51031;BME280;37058;41.442;23.240;2022-10-22T08:53:30;101483.38;;;16.10;57.99
51031;BME280;37058;41.442;23.240;2022-10-22T08:55:57;101473.72;;;16.07;58.00
51031;BME280;37058;41.442;23.240;2022-10-22T08:58:47;101469.88;;;16.08;57.96
51031;BME280;37058;41.442;23.240;2022-10-22T09:01:42;101465.06;;;16.25;58.04
51031;BME280;37058;41.442;23.240;2022-10-22T09:04:25;101461.69;;;16.18;57.92
51031;BME280;37058;41.442;23.240;2022-10-22T09:06:54;101457.03;;;16.24;57.93
51031;BME280;37058;41.442;23.240;2022-10-22T09:09:31;101455.97;;;16.30;57.63
51031;BME280;37058;41.442;23.240;2022-10-22T09:12:00;101451.63;;;16.39;57.82
51031;BME280;37058;41.442;23.240;2022-10-22T09:14:27;101444.19;;;16.40;57.98
51031;BME280;37058;41.442;23.240;2022-10-22T09:17:25;101448.63;;;16.46;58.15
51031;BME280;37058;41.442;23.240;2022-10-22T09:20:24;101444.78;;;16.47;57.99
51031;BME280;37058;41.442;23.240;2022-10-22T09:25:46;101441.50;;;16.55;57.97
51031;BME280;37058;41.442;23.240;2022-10-22T09:28:13;101441.59;;;16.76;57.73
51031;BME280;37058;41.442;23.240;2022-10-22T09:30:39;101438.84;;;16.76;57.76
51031;BME280;37058;41.442;23.240;2022-10-22T09:35:52;101426.50;;;16.88;57.36
51031;BME280;37058;41.442;23.240;2022-10-22T09:38:24;101427.38;;;16.94;57.49
51031;BME280;37058;41.442;23.240;2022-10-22T09:40:54;101420.75;;;17.00;57.38
51031;BME280;37058;41.442;23.240;2022-10-22T09:43:21;101416.38;;;17.04;57.37
51031;BME280;37058;41.442;23.240;2022-10-22T09:45:59;101407.00;;;17.21;57.64
51031;BME280;37058;41.442;23.240;2022-10-22T09:48:40;101389.38;;;17.32;58.31
51031;BME280;37058;41.442;23.240;2022-10-22T09:51:35;101396.81;;;17.37;58.60
51031;BME280;37058;41.442;23.240;2022-10-22T09:54:36;101393.78;;;17.48;58.79
51031;BME280;37058;41.442;23.240;2022-10-22T09:57:02;101385.78;;;17.57;58.52
51031;BME280;37058;41.442;23.240;2022-10-22T09:59:36;101376.66;;;17.57;58.38
51031;BME280;37058;41.442;23.240;2022-10-22T10:04:56;101362.28;;;17.49;58.55
51031;BME280;37058;41.442;23.240;2022-10-22T10:07:29;101361.47;;;17.54;58.71
51031;BME280;37058;41.442;23.240;2022-10-22T10:09:55;101352.63;;;17.62;58.98
51031;BME280;37058;41.442;23.240;2022-10-22T10:15:32;101340.75;;;17.82;58.66
51031;BME280;37058;41.442;23.240;2022-10-22T10:21:14;101336.28;;;18.07;58.09
51031;BME280;37058;41.442;23.240;2022-10-22T10:24:20;101332.94;;;18.15;57.70
51031;BME280;37058;41.442;23.240;2022-10-22T10:33:27;101328.47;;;18.29;57.77
51031;BME280;37058;41.442;23.240;2022-10-22T10:36:15;101312.13;;;18.38;57.55
51031;BME280;37058;41.442;23.240;2022-10-22T10:39:15;101317.34;;;18.45;57.34
51031;BME280;37058;41.442;23.240;2022-10-22T10:45:25;101289.91;;;18.58;56.53
51031;BME280;37058;41.442;23.240;2022-10-22T10:48:19;101290.41;;;18.66;56.45
51031;BME280;37058;41.442;23.240;2022-10-22T10:51:06;101281.25;;;18.70;56.11
51031;BME280;37058;41.442;23.240;2022-10-22T10:53:52;101264.66;;;18.75;55.75
51031;BME280;37058;41.442;23.240;2022-10-22T10:56:44;101272.28;;;18.89;55.44
51031;BME280;37058;41.442;23.240;2022-10-22T10:59:53;101265.19;;;18.77;55.48
51031;BME280;37058;41.442;23.240;2022-10-22T11:06:01;101246.13;;;18.66;56.50
51031;BME280;37058;41.442;23.240;2022-10-22T11:08:39;101246.41;;;18.69;56.28
51031;BME280;37058;41.442;23.240;2022-10-22T11:14:31;101230.59;;;18.80;56.09
51031;BME280;37058;41.442;23.240;2022-10-22T11:17:13;101236.34;;;18.83;55.69
51031;BME280;37058;41.442;23.240;2022-10-22T11:20:18;101228.00;;;18.89;54.84
51031;BME280;37058;41.442;23.240;2022-10-22T11:22:56;101227.69;;;18.95;54.94
51031;BME280;37058;41.442;23.240;2022-10-22T11:25:29;101227.38;;;19.02;54.94
51031;BME280;37058;41.442;23.240;2022-10-22T11:28:22;101216.81;;;19.04;55.35
51031;BME280;37058;41.442;23.240;2022-10-22T11:31:00;101217.13;;;19.02;55.38
51031;BME280;37058;41.442;23.240;2022-10-22T11:33:38;101220.97;;;19.01;55.37
51031;BME280;37058;41.442;23.240;2022-10-22T11:36:08;101214.91;;;19.04;55.55
51031;BME280;37058;41.442;23.240;2022-10-22T11:38:35;101213.19;;;19.09;55.37
51031;BME280;37058;41.442;23.240;2022-10-22T11:41:16;101204.59;;;19.10;55.13
51031;BME280;37058;41.442;23.240;2022-10-22T11:44:09;101193.47;;;19.15;55.12
51031;BME280;37058;41.442;23.240;2022-10-22T11:47:12;101197.81;;;19.21;55.08
51031;BME280;37058;41.442;23.240;2022-10-22T11:50:24;101187.00;;;19.25;54.87
51031;BME280;37058;41.442;23.240;2022-10-22T12:03:38;101159.38;;;19.44;54.00
51031;BME280;37058;41.442;23.240;2022-10-22T12:17:09;101139.06;;;19.30;54.26
51031;BME280;37058;41.442;23.240;2022-10-22T12:20:03;101150.97;;;19.30;54.73
51031;BME280;37058;41.442;23.240;2022-10-22T12:22:33;101145.97;;;19.32;54.78
51031;BME280;37058;41.442;23.240;2022-10-22T12:25:20;101130.97;;;19.33;54.31
51031;BME280;37058;41.442;23.240;2022-10-22T12:27:58;101117.88;;;19.39;54.37
51031;BME280;37058;41.442;23.240;2022-10-22T12:30:34;101125.59;;;19.42;54.58
51031;BME280;37058;41.442;23.240;2022-10-22T12:33:05;101125.03;;;19.45;54.56
51031;BME280;37058;41.442;23.240;2022-10-22T12:35:34;101123.03;;;19.51;54.46
51031;BME280;37058;41.442;23.240;2022-10-22T12:38:20;101123.19;;;19.59;53.74
51031;BME280;37058;41.442;23.240;2022-10-22T12:40:47;101127.84;;;19.64;53.27
51031;BME280;37058;41.442;23.240;2022-10-22T12:43:32;101120.88;;;19.66;52.68
51031;BME280;37058;41.442;23.240;2022-10-22T12:46:01;101115.66;;;19.65;52.77
51031;BME280;37058;41.442;23.240;2022-10-22T12:48:30;101112.84;;;19.70;51.98
51031;BME280;37058;41.442;23.240;2022-10-22T12:51:01;101105.34;;;19.70;52.31
51031;BME280;37058;41.442;23.240;2022-10-22T12:53:34;101105.88;;;19.73;52.27
51031;BME280;37058;41.442;23.240;2022-10-22T12:56:30;101108.66;;;19.73;52.76
51031;BME280;37058;41.442;23.240;2022-10-22T12:59:06;101099.22;;;19.74;52.83
51031;BME280;37058;41.442;23.240;2022-10-22T13:01:38;101099.00;;;19.70;52.76
51031;BME280;37058;41.442;23.240;2022-10-22T13:06:35;101094.19;;;19.76;52.13
51031;BME280;37058;41.442;23.240;2022-10-22T13:09:16;101089.69;;;19.80;51.77
51031;BME280;37058;41.442;23.240;2022-10-22T13:12:03;101087.44;;;19.82;51.13
51031;BME280;37058;41.442;23.240;2022-10-22T13:14:32;101090.00;;;19.78;51.43
51031;BME280;37058;41.442;23.240;2022-10-22T13:17:40;101089.25;;;19.73;51.81
51031;BME280;37058;41.442;23.240;2022-10-22T13:20:21;101085.13;;;19.70;51.57
51031;BME280;37058;41.442;23.240;2022-10-22T13:23:03;101084.03;;;19.66;51.56
51031;BME280;37058;41.442;23.240;2022-10-22T13:25:35;101089.03;;;19.64;51.68
51031;BME280;37058;41.442;23.240;2022-10-22T13:28:20;101086.47;;;19.73;52.08
51031;BME280;37058;41.442;23.240;2022-10-22T13:31:07;101078.91;;;19.78;51.89
51031;BME280;37058;41.442;23.240;2022-10-22T13:33:38;101084.47;;;19.78;51.66
51031;BME280;37058;41.442;23.240;2022-10-22T13:36:05;101079.22;;;19.77;51.82
51031;BME280;37058;41.442;23.240;2022-10-22T13:38:32;101084.22;;;19.75;51.87
51031;BME280;37058;41.442;23.240;2022-10-22T13:40:58;101085.28;;;19.79;52.08
51031;BME280;37058;41.442;23.240;2022-10-22T13:43:24;101078.91;;;19.78;52.33
51031;BME280;37058;41.442;23.240;2022-10-22T13:45:57;101085.28;;;19.79;52.37
51031;BME280;37058;41.442;23.240;2022-10-22T13:48:25;101093.59;;;19.79;52.09
51031;BME280;37058;41.442;23.240;2022-10-22T13:50:52;101080.28;;;19.81;52.20
51031;BME280;37058;41.442;23.240;2022-10-22T13:53:24;101075.84;;;19.80;52.31
51031;BME280;37058;41.442;23.240;2022-10-22T13:55:50;101074.72;;;19.81;52.32
51031;BME280;37058;41.442;23.240;2022-10-22T13:58:19;101068.03;;;19.82;52.52
51031;BME280;37058;41.442;23.240;2022-10-22T14:00:50;101073.00;;;19.85;52.19
51031;BME280;37058;41.442;23.240;2022-10-22T14:03:20;101067.44;;;19.85;52.13
51031;BME280;37058;41.442;23.240;2022-10-22T14:05:47;101068.50;;;19.89;52.06
51031;BME280;37058;41.442;23.240;2022-10-22T14:08:19;101066.88;;;19.88;52.25
51031;BME280;37058;41.442;23.240;2022-10-22T14:10:47;101063.56;;;19.86;52.50
51031;BME280;37058;41.442;23.240;2022-10-22T14:13:15;101060.72;;;19.91;52.13
51031;BME280;37058;41.442;23.240;2022-10-22T14:15:42;101064.09;;;19.88;52.66
51031;BME280;37058;41.442;23.240;2022-10-22T14:18:23;101061.09;;;19.84;52.79
51031;BME280;37058;41.442;23.240;2022-10-22T14:20:55;101057.41;;;19.89;52.53
51031;BME280;37058;41.442;23.240;2022-10-22T14:23:23;101047.75;;;19.86;52.82
51031;BME280;37058;41.442;23.240;2022-10-22T14:25:51;101045.81;;;19.87;52.57
51031;BME280;37058;41.442;23.240;2022-10-22T14:28:17;101040.34;;;19.82;53.00
51031;BME280;37058;41.442;23.240;2022-10-22T14:30:44;101037.63;;;19.77;53.12
51031;BME280;37058;41.442;23.240;2022-10-22T14:33:24;101041.81;;;19.74;53.20
51031;BME280;37058;41.442;23.240;2022-10-22T14:35:51;101041.63;;;19.70;53.00
51031;BME280;37058;41.442;23.240;2022-10-22T14:38:17;101042.22;;;19.67;53.66